createdAt,value
2023-03-02T00:01:09.986Z,100655.13
2023-03-02T00:03:39.728Z,100656.40
2023-03-02T00:06:08.124Z,100663.23
2023-03-02T00:08:37.578Z,100655.40
2023-03-02T00:11:05.982Z,100660.12
2023-03-02T00:13:37.480Z,100660.81
2023-03-02T00:16:06.093Z,100656.98
2023-03-02T00:18:34.390Z,100658.92
2023-03-02T00:21:02.634Z,100658.34
2023-03-02T00:23:31.444Z,100654.55
2023-03-02T00:26:03.082Z,100649.91
2023-03-02T00:28:33.427Z,100649.39
2023-03-02T00:31:04.294Z,100646.27
2023-03-02T00:33:37.227Z,100640.84
2023-03-02T00:36:05.751Z,100643.17
2023-03-02T00:38:34.299Z,100645.71
2023-03-02T00:41:02.757Z,100644.54
2023-03-02T00:43:31.874Z,100644.76
2023-03-02T00:46:00.548Z,100647.73
2023-03-02T00:48:29.292Z,100648.40
2023-03-02T00:51:00.525Z,100650.38
2023-03-02T00:53:33.779Z,100652.31
2023-03-02T00:56:03.315Z,100649.40
2023-03-02T00:58:32.790Z,100651.55
2023-03-02T01:01:07.106Z,100650.18
2023-03-02T01:03:36.672Z,100654.48
2023-03-02T01:06:13.660Z,100653.02
2023-03-02T01:08:42.958Z,100653.66
2023-03-02T01:11:15.172Z,100650.95
2023-03-02T01:13:43.943Z,100645.44
2023-03-02T01:16:12.243Z,100649.73
2023-03-02T01:18:44.821Z,100652.27
2023-03-02T01:21:13.768Z,100651.93
2023-03-02T01:23:42.688Z,100656.75
2023-03-02T01:26:11.522Z,100658.27
2023-03-02T01:28:40.364Z,100655.98
2023-03-02T01:31:10.513Z,100653.17
2023-03-02T01:33:39.995Z,100658.20
2023-03-02T01:36:13.069Z,100662.34
2023-03-02T01:38:41.563Z,100661.23
2023-03-02T01:41:10.168Z,100658.83
2023-03-02T01:43:38.504Z,100661.73
2023-03-02T01:46:25.452Z,100659.30
2023-03-02T01:49:03.501Z,100659.59
2023-03-02T01:51:44.329Z,100658.58
2023-03-02T01:54:17.436Z,100660.63
2023-03-02T01:56:45.825Z,100662.33
2023-03-02T01:59:14.674Z,100663.30
2023-03-02T02:01:43.595Z,100662.52
2023-03-02T02:04:11.969Z,100661.80
2023-03-02T02:06:42.971Z,100660.16
2023-03-02T02:09:12.793Z,100659.37
2023-03-02T02:11:42.617Z,100657.77
2023-03-02T02:14:12.141Z,100656.02
2023-03-02T02:16:41.745Z,100657.30
2023-03-02T02:19:15.759Z,100660.98
2023-03-02T02:21:44.243Z,100657.88
2023-03-02T02:24:18.805Z,100659.05
2023-03-02T02:26:49.139Z,100655.99
2023-03-02T02:29:22.912Z,100656.01
2023-03-02T02:32:06.982Z,100659.27
2023-03-02T02:34:39.876Z,100653.31
2023-03-02T02:37:20.559Z,100654.09
2023-03-02T02:39:50.269Z,100656.36
2023-03-02T02:42:20.226Z,100653.05
2023-03-02T02:44:49.135Z,100652.44
2023-03-02T02:47:20.869Z,100649.07
2023-03-02T02:49:50.059Z,100647.35
2023-03-02T02:52:19.972Z,100651.78
2023-03-02T02:54:51.131Z,100655.11
2023-03-02T02:57:19.708Z,100655.72
2023-03-02T02:59:48.624Z,100654.98
2023-03-02T03:02:20.960Z,100658.45
2023-03-02T03:04:49.489Z,100655.27
2023-03-02T03:07:22.001Z,100657.70
2023-03-02T03:10:11.615Z,100661.70
2023-03-02T03:12:43.523Z,100662.27
2023-03-02T03:15:12.051Z,100666.10
2023-03-02T03:17:41.131Z,100670.38
2023-03-02T03:20:09.710Z,100671.08
2023-03-02T03:22:41.181Z,100674.34
2023-03-02T03:25:15.631Z,100669.17
2023-03-02T03:27:46.707Z,100673.44
2023-03-02T03:30:17.921Z,100667.66
2023-03-02T03:32:47.558Z,100674.39
2023-03-02T03:35:16.683Z,100675.40
2023-03-02T03:37:45.962Z,100684.48
2023-03-02T03:40:16.265Z,100678.90
2023-03-02T03:42:46.835Z,100680.63
2023-03-02T03:45:15.442Z,100683.68
2023-03-02T03:47:45.044Z,100683.14
2023-03-02T03:50:13.566Z,100688.80
2023-03-02T03:52:42.548Z,100689.86
2023-03-02T03:55:18.337Z,100690.92
2023-03-02T03:57:47.398Z,100688.27
2023-03-02T04:00:17.440Z,100688.34
2023-03-02T04:02:51.513Z,100690.11
2023-03-02T04:05:20.712Z,100690.18
2023-03-02T04:07:52.158Z,100688.48
2023-03-02T04:10:21.464Z,100690.36
2023-03-02T04:12:55.959Z,100691.77
2023-03-02T04:15:25.936Z,100692.60
2023-03-02T04:17:54.454Z,100690.71
2023-03-02T04:20:24.133Z,100692.38
2023-03-02T04:22:56.377Z,100694.81
2023-03-02T04:25:25.655Z,100692.13
2023-03-02T04:27:57.744Z,100695.25
2023-03-02T04:30:29.660Z,100697.31
2023-03-02T04:32:59.289Z,100693.15
2023-03-02T04:35:29.922Z,100696.55
2023-03-02T04:37:59.230Z,100696.02
2023-03-02T04:40:27.871Z,100697.30
2023-03-02T04:42:56.098Z,100698.23
2023-03-02T04:45:24.401Z,100696.08
2023-03-02T04:47:54.593Z,100693.79
2023-03-02T04:50:26.195Z,100696.02
2023-03-02T04:52:57.002Z,100700.08
2023-03-02T04:55:25.931Z,100704.48
2023-03-02T04:57:54.137Z,100704.13
2023-03-02T05:00:22.540Z,100700.38
2023-03-02T05:02:51.250Z,100702.84
2023-03-02T05:05:21.876Z,100710.14
2023-03-02T05:07:50.670Z,100714.02
2023-03-02T05:10:20.243Z,100716.66
2023-03-02T05:12:58.453Z,100721.94
2023-03-02T05:15:27.693Z,100721.42
2023-03-02T05:17:56.654Z,100728.54
2023-03-02T05:20:30.477Z,100726.39
2023-03-02T05:23:00.591Z,100730.96
2023-03-02T05:25:30.023Z,100736.55
2023-03-02T05:28:00.718Z,100734.77
2023-03-02T05:30:29.407Z,100736.80
2023-03-02T05:32:57.791Z,100741.65
2023-03-02T05:35:27.517Z,100745.66
2023-03-02T05:37:55.983Z,100752.95
2023-03-02T05:40:24.172Z,100758.63
2023-03-02T05:42:52.446Z,100757.02
2023-03-02T05:45:24.727Z,100762.09
2023-03-02T05:47:53.049Z,100766.11
2023-03-02T05:50:21.398Z,100770.27
2023-03-02T05:52:50.656Z,100772.98
2023-03-02T05:55:19.106Z,100771.70
2023-03-02T05:57:49.464Z,100777.55
2023-03-02T06:00:18.944Z,100770.48
2023-03-02T06:02:47.550Z,100769.96
2023-03-02T06:05:17.088Z,100771.46
2023-03-02T06:07:45.472Z,100767.02
2023-03-02T06:10:14.049Z,100771.68
2023-03-02T06:12:42.394Z,100769.10
2023-03-02T06:15:11.507Z,100773.95
2023-03-02T06:17:40.457Z,100776.66
2023-03-02T06:20:12.542Z,100783.09
2023-03-02T06:22:42.211Z,100783.73
2023-03-02T06:25:10.595Z,100786.83
2023-03-02T06:27:43.028Z,100790.05
2023-03-02T06:30:12.099Z,100792.54
2023-03-02T06:32:40.531Z,100789.23
2023-03-02T06:35:09.806Z,100795.12
2023-03-02T06:37:38.159Z,100795.61
2023-03-02T06:40:14.137Z,100796.07
2023-03-02T06:42:42.805Z,100803.36
2023-03-02T06:45:11.347Z,100804.39
2023-03-02T06:47:41.429Z,100808.23
2023-03-02T06:50:10.146Z,100808.09
2023-03-02T06:52:39.901Z,100810.94
2023-03-02T06:55:08.506Z,100810.02
2023-03-02T06:57:36.856Z,100808.65
2023-03-02T07:00:10.405Z,100812.59
2023-03-02T07:02:45.137Z,100812.52
2023-03-02T07:05:14.569Z,100813.67
2023-03-02T07:07:49.561Z,100816.30
2023-03-02T07:10:18.407Z,100812.84
2023-03-02T07:12:46.790Z,100810.46
2023-03-02T07:15:22.389Z,100810.39
2023-03-02T07:17:50.742Z,100808.47
2023-03-02T07:20:19.272Z,100807.23
2023-03-02T07:22:49.005Z,100808.52
2023-03-02T07:25:17.573Z,100807.89
2023-03-02T07:27:50.031Z,100808.23
2023-03-02T07:30:21.422Z,100814.45
2023-03-02T07:32:49.666Z,100814.02
2023-03-02T07:35:18.299Z,100816.97
2023-03-02T07:37:46.497Z,100814.60
2023-03-02T07:40:14.738Z,100814.97
2023-03-02T07:42:43.016Z,100813.11
2023-03-02T07:45:13.710Z,100817.90
2023-03-02T07:47:43.030Z,100817.23
2023-03-02T07:50:11.547Z,100812.67
2023-03-02T07:52:40.527Z,100808.27
2023-03-02T07:55:09.366Z,100807.02
2023-03-02T07:57:39.190Z,100815.92
2023-03-02T08:00:07.913Z,100815.93
2023-03-02T08:02:42.197Z,100809.63
2023-03-02T08:05:13.348Z,100806.77
2023-03-02T08:07:46.881Z,100812.81
2023-03-02T08:10:15.170Z,100811.17
2023-03-02T08:12:44.326Z,100813.59
2023-03-02T08:15:14.062Z,100816.01
2023-03-02T08:17:42.703Z,100812.62
2023-03-02T08:20:15.538Z,100807.46
2023-03-02T08:22:43.926Z,100800.93
2023-03-02T08:25:12.546Z,100803.90
2023-03-02T08:27:42.503Z,100800.71
2023-03-02T08:30:11.017Z,100794.67
2023-03-02T08:32:39.959Z,100795.81
2023-03-02T08:35:09.488Z,100789.98
2023-03-02T08:37:38.672Z,100788.43
2023-03-02T08:40:07.595Z,100789.95
2023-03-02T08:42:35.936Z,100791.60
2023-03-02T08:45:06.240Z,100790.79
2023-03-02T08:47:34.860Z,100786.09
2023-03-02T08:50:04.157Z,100783.45
2023-03-02T08:52:35.631Z,100787.20
2023-03-02T08:55:05.166Z,100783.08
2023-03-02T08:57:35.031Z,100782.84
2023-03-02T09:00:03.861Z,100785.59
2023-03-02T09:02:32.605Z,100779.96
2023-03-02T09:05:01.253Z,100773.33
2023-03-02T09:07:30.757Z,100775.80
2023-03-02T09:10:01.901Z,100774.79
2023-03-02T09:12:30.529Z,100776.14
2023-03-02T09:14:59.023Z,100785.27
2023-03-02T09:17:28.364Z,100783.41
2023-03-02T09:19:56.919Z,100787.38
2023-03-02T09:22:25.300Z,100785.20
2023-03-02T09:24:53.478Z,100786.31
2023-03-02T09:27:21.822Z,100780.70
2023-03-02T09:29:50.064Z,100779.15
2023-03-02T09:32:18.742Z,100778.23
2023-03-02T09:34:47.141Z,100782.04
2023-03-02T09:37:15.423Z,100770.42
2023-03-02T09:39:43.716Z,100772.30
2023-03-02T09:42:19.779Z,100770.73
2023-03-02T09:44:54.092Z,100769.37
2023-03-02T09:47:35.227Z,100760.78
2023-03-02T09:50:24.295Z,100760.08
2023-03-02T09:52:52.558Z,100750.06
2023-03-02T09:55:27.692Z,100751.33
2023-03-02T09:58:02.527Z,100750.56
2023-03-02T10:00:32.391Z,100755.88
2023-03-02T10:03:14.726Z,100752.01
2023-03-02T10:05:44.783Z,100747.79
2023-03-02T10:08:18.903Z,100745.30
2023-03-02T10:10:51.676Z,100752.77
2023-03-02T10:13:25.505Z,100748.74
2023-03-02T10:16:14.222Z,100750.54
2023-03-02T10:18:44.308Z,100743.48
2023-03-02T10:21:22.493Z,100735.48
2023-03-02T10:24:00.813Z,100738.95
2023-03-02T10:26:42.837Z,100742.23
2023-03-02T10:29:23.445Z,100745.35
2023-03-02T10:31:58.658Z,100748.20
2023-03-02T10:34:28.413Z,100744.66
2023-03-02T10:36:56.811Z,100737.76
2023-03-02T10:39:25.114Z,100744.33
2023-03-02T10:41:56.590Z,100736.64
2023-03-02T10:44:27.910Z,100733.30
2023-03-02T10:46:57.438Z,100731.20
2023-03-02T10:49:32.663Z,100732.23
2023-03-02T10:52:02.704Z,100728.64
2023-03-02T10:54:32.269Z,100733.52
2023-03-02T10:57:02.692Z,100727.73
2023-03-02T10:59:46.612Z,100727.48
2023-03-02T11:02:23.803Z,100717.79
2023-03-02T11:04:57.639Z,100714.23
2023-03-02T11:07:27.982Z,100717.82
2023-03-02T11:09:58.465Z,100720.40
2023-03-02T11:12:26.953Z,100723.80
2023-03-02T11:15:16.296Z,100728.21
2023-03-02T11:17:44.923Z,100722.98
2023-03-02T11:20:18.004Z,100715.77
2023-03-02T11:22:52.468Z,100723.19
2023-03-02T11:25:32.798Z,100720.89
2023-03-02T11:28:03.480Z,100717.61
2023-03-02T11:30:32.185Z,100719.24
2023-03-02T11:33:15.129Z,100719.08
2023-03-02T11:35:51.787Z,100713.12
2023-03-02T11:38:33.012Z,100710.30
2023-03-02T11:41:16.575Z,100714.52
2023-03-02T11:43:45.169Z,100707.11
2023-03-02T11:46:21.561Z,100703.89
2023-03-02T11:48:51.066Z,100706.14
2023-03-02T11:51:19.272Z,100703.64
2023-03-02T11:53:52.318Z,100697.49
2023-03-02T11:56:20.611Z,100690.27
2023-03-02T11:58:50.214Z,100688.80
2023-03-02T12:01:20.011Z,100687.90
2023-03-02T12:03:48.247Z,100694.45
2023-03-02T12:06:25.316Z,100696.14
2023-03-02T12:09:07.876Z,100694.81
2023-03-02T12:11:38.994Z,100697.35
2023-03-02T12:14:43.989Z,100695.86
2023-03-02T12:17:27.657Z,100695.25
2023-03-02T12:20:07.496Z,100693.20
2023-03-02T12:22:37.778Z,100702.71
2023-03-02T12:25:26.557Z,100699.71
2023-03-02T12:27:56.672Z,100704.54
2023-03-02T12:30:26.864Z,100702.59
2023-03-02T12:33:10.378Z,100696.95
2023-03-02T12:35:38.696Z,100687.64
2023-03-02T12:38:14.690Z,100681.27
2023-03-02T12:40:58.611Z,100681.77
2023-03-02T12:43:27.331Z,100687.11
2023-03-02T12:46:15.043Z,100687.62
2023-03-02T12:48:46.601Z,100683.82
2023-03-02T12:51:17.479Z,100684.33
2023-03-02T12:53:45.988Z,100682.95
2023-03-02T12:56:24.881Z,100681.23
2023-03-02T12:58:54.133Z,100677.95
2023-03-02T13:01:23.702Z,100677.09
2023-03-02T13:03:53.097Z,100670.20
2023-03-02T13:06:23.288Z,100675.88
2023-03-02T13:08:54.295Z,100673.47
2023-03-02T13:11:31.306Z,100679.84
2023-03-02T13:14:03.877Z,100676.20
2023-03-02T13:16:33.573Z,100669.12
2023-03-02T13:19:02.883Z,100668.75
2023-03-02T13:21:32.897Z,100668.21
2023-03-02T13:24:01.432Z,100665.45
2023-03-02T13:26:36.607Z,100661.84
2023-03-02T13:29:32.147Z,100653.21
2023-03-02T13:32:20.116Z,100658.02
2023-03-02T13:34:49.946Z,100661.11
2023-03-02T13:37:22.870Z,100658.17
2023-03-02T13:39:54.723Z,100655.95
2023-03-02T13:42:27.157Z,100646.67
2023-03-02T13:44:55.359Z,100639.94
2023-03-02T13:47:24.124Z,100637.19
2023-03-02T13:49:53.197Z,100638.05
2023-03-02T13:52:21.603Z,100644.59
2023-03-02T13:54:51.236Z,100644.58
2023-03-02T13:57:22.202Z,100638.56
2023-03-02T13:59:50.516Z,100635.45
2023-03-02T14:02:25.987Z,100632.34
2023-03-02T14:04:54.606Z,100638.31
2023-03-02T14:07:23.003Z,100639.81
2023-03-02T14:09:51.371Z,100636.52
2023-03-02T14:12:24.360Z,100639.41
2023-03-02T14:14:52.751Z,100641.48
2023-03-02T14:17:22.263Z,100643.36
2023-03-02T14:19:53.056Z,100641.47
2023-03-02T14:22:21.715Z,100630.09
2023-03-02T14:24:52.312Z,100630.41
2023-03-02T14:27:20.974Z,100634.86
2023-03-02T14:29:49.481Z,100635.53
2023-03-02T14:32:18.145Z,100633.94
2023-03-02T14:34:46.775Z,100634.27
2023-03-02T14:37:15.638Z,100630.63
2023-03-02T14:39:47.397Z,100625.77
2023-03-02T14:42:16.725Z,100624.52
2023-03-02T14:44:49.410Z,100622.07
2023-03-02T14:47:19.855Z,100623.91
2023-03-02T14:49:49.523Z,100621.26
2023-03-02T14:52:21.321Z,100623.77
2023-03-02T14:54:51.832Z,100625.77
2023-03-02T14:57:25.457Z,100627.71
2023-03-02T14:59:53.930Z,100627.39
2023-03-02T15:02:26.197Z,100625.20
2023-03-02T15:05:12.309Z,100626.77
2023-03-02T15:07:44.308Z,100628.37
2023-03-02T15:10:18.100Z,100631.33
2023-03-02T15:12:46.509Z,100632.23
2023-03-02T15:15:16.708Z,100633.81
2023-03-02T15:17:45.583Z,100637.63
2023-03-02T15:20:17.201Z,100639.36
2023-03-02T15:22:47.167Z,100639.74
2023-03-02T15:25:15.484Z,100635.49
2023-03-02T15:27:44.049Z,100635.19
2023-03-02T15:30:12.788Z,100637.48
2023-03-02T15:32:41.418Z,100640.77
2023-03-02T15:35:10.028Z,100640.45
2023-03-02T15:37:39.465Z,100641.86
2023-03-02T15:40:08.409Z,100643.95
2023-03-02T15:42:37.401Z,100643.31
2023-03-02T15:45:06.964Z,100643.20
2023-03-02T15:47:37.680Z,100650.96
2023-03-02T15:50:06.164Z,100649.98
2023-03-02T15:52:34.441Z,100649.34
2023-03-02T15:55:03.061Z,100649.74
2023-03-02T15:57:31.403Z,100651.66
2023-03-02T16:00:04.345Z,100653.08
2023-03-02T16:02:35.921Z,100653.83
2023-03-02T16:05:08.743Z,100655.23
2023-03-02T16:07:39.565Z,100659.58
2023-03-02T16:10:08.505Z,100659.80
2023-03-02T16:12:37.116Z,100658.48
2023-03-02T16:15:05.618Z,100660.62
2023-03-02T16:17:33.998Z,100665.11
2023-03-02T16:20:02.715Z,100663.48
2023-03-02T16:22:31.124Z,100665.58
2023-03-02T16:25:00.886Z,100668.38
2023-03-02T16:27:30.681Z,100671.17
2023-03-02T16:29:58.957Z,100672.42
2023-03-02T16:32:27.664Z,100673.02
2023-03-02T16:34:55.965Z,100673.22
2023-03-02T16:37:24.181Z,100675.67
2023-03-02T16:39:52.549Z,100678.80
2023-03-02T16:42:22.769Z,100680.57
2023-03-02T16:44:51.220Z,100680.33
2023-03-02T16:47:19.468Z,100680.20
2023-03-02T16:49:48.798Z,100683.86
2023-03-02T16:52:17.721Z,100686.31
2023-03-02T16:54:46.679Z,100688.62
2023-03-02T16:57:15.111Z,100689.05
2023-03-02T16:59:43.407Z,100689.45
2023-03-02T17:02:11.932Z,100692.26
2023-03-02T17:04:42.835Z,100691.13
2023-03-02T17:07:11.343Z,100690.65
2023-03-02T17:09:42.413Z,100685.78
2023-03-02T17:12:11.534Z,100686.77
2023-03-02T17:14:40.930Z,100686.69
2023-03-02T17:17:11.284Z,100686.40
2023-03-02T17:19:40.321Z,100689.91
2023-03-02T17:22:08.589Z,100690.00
2023-03-02T17:24:36.908Z,100689.71
2023-03-02T17:27:13.131Z,100689.46
2023-03-02T17:29:48.899Z,100691.59
2023-03-02T17:32:17.422Z,100691.85
2023-03-02T17:34:45.676Z,100692.98
2023-03-02T17:37:14.344Z,100692.54
2023-03-02T17:39:42.969Z,100695.02
2023-03-02T17:42:11.645Z,100690.91
2023-03-02T17:44:40.498Z,100691.91
2023-03-02T17:47:11.350Z,100687.39
2023-03-02T17:49:40.846Z,100692.73
2023-03-02T17:52:09.857Z,100696.35
2023-03-02T17:54:38.581Z,100693.86
2023-03-02T17:57:07.182Z,100695.13
2023-03-02T17:59:36.199Z,100692.45
2023-03-02T18:02:04.587Z,100687.04
2023-03-02T18:04:34.291Z,100692.06
2023-03-02T18:07:03.161Z,100693.50
2023-03-02T18:09:31.822Z,100694.42
2023-03-02T18:12:01.250Z,100697.75
2023-03-02T18:14:30.786Z,100693.77
2023-03-02T18:17:05.071Z,100693.70
2023-03-02T18:19:33.600Z,100693.69
2023-03-02T18:22:02.048Z,100694.05
2023-03-02T18:24:30.460Z,100695.76
2023-03-02T18:26:59.286Z,100699.84
2023-03-02T18:29:27.540Z,100700.56
2023-03-02T18:31:56.144Z,100701.20
2023-03-02T18:34:24.425Z,100702.02
2023-03-02T18:36:52.887Z,100701.83
2023-03-02T18:39:21.312Z,100698.98
2023-03-02T18:41:49.858Z,100700.61
2023-03-02T18:44:18.922Z,100698.70
2023-03-02T18:46:47.184Z,100706.36
2023-03-02T18:49:15.449Z,100706.20
2023-03-02T18:51:44.123Z,100702.61
2023-03-02T18:54:13.192Z,100706.06
2023-03-02T18:56:41.562Z,100710.17
2023-03-02T18:59:09.932Z,100718.98
2023-03-02T19:01:38.380Z,100721.42
2023-03-02T19:04:06.765Z,100723.56
2023-03-02T19:06:36.468Z,100722.05
2023-03-02T19:09:05.307Z,100725.05
2023-03-02T19:11:33.526Z,100728.45
2023-03-02T19:14:02.021Z,100722.94
2023-03-02T19:16:31.015Z,100718.38
2023-03-02T19:18:59.312Z,100722.46
2023-03-02T19:21:27.565Z,100719.80
2023-03-02T19:23:56.001Z,100720.55
2023-03-02T19:26:24.345Z,100723.39
2023-03-02T19:28:52.724Z,100720.15
2023-03-02T19:31:21.644Z,100719.59
2023-03-02T19:33:49.854Z,100718.02
2023-03-02T19:36:18.027Z,100720.96
2023-03-02T19:38:46.715Z,100721.18
2023-03-02T19:41:17.410Z,100722.67
2023-03-02T19:43:46.336Z,100722.67
2023-03-02T19:46:15.308Z,100715.64
2023-03-02T19:48:43.626Z,100716.96
2023-03-02T19:51:12.382Z,100713.27
2023-03-02T19:53:41.549Z,100711.27
2023-03-02T19:56:12.925Z,100711.09
2023-03-02T19:58:47.511Z,100707.33
2023-03-02T20:01:17.343Z,100706.27
2023-03-02T20:03:48.328Z,100700.07
2023-03-02T20:06:16.813Z,100695.86
2023-03-02T20:08:45.168Z,100691.95
2023-03-02T20:11:16.563Z,100688.94
2023-03-02T20:13:45.517Z,100680.65
2023-03-02T20:16:13.827Z,100679.96
2023-03-02T20:18:43.387Z,100677.59
2023-03-02T20:21:11.712Z,100676.70
2023-03-02T20:23:40.048Z,100676.33
2023-03-02T20:26:08.928Z,100680.08
2023-03-02T20:28:37.509Z,100684.23
2023-03-02T20:31:09.054Z,100684.09
2023-03-02T20:33:41.942Z,100683.39
2023-03-02T20:36:15.406Z,100676.09
2023-03-02T20:38:45.619Z,100676.61
2023-03-02T20:41:14.248Z,100671.55
2023-03-02T20:43:44.464Z,100662.58
2023-03-02T20:46:13.596Z,100663.15
2023-03-02T20:48:42.665Z,100662.80
2023-03-02T20:51:10.997Z,100657.80
2023-03-02T20:53:47.218Z,100656.81
2023-03-02T20:56:15.895Z,100650.11
2023-03-02T20:58:44.494Z,100650.54
2023-03-02T21:01:12.995Z,100649.54
2023-03-02T21:03:41.477Z,100645.94
2023-03-02T21:06:09.661Z,100643.88
2023-03-02T21:08:39.258Z,100638.59
2023-03-02T21:11:12.842Z,100637.01
2023-03-02T21:13:45.835Z,100635.02
2023-03-02T21:16:21.179Z,100631.85
2023-03-02T21:18:50.100Z,100625.86
2023-03-02T21:21:21.499Z,100629.14
2023-03-02T21:23:51.453Z,100628.87
2023-03-02T21:26:20.673Z,100626.73
2023-03-02T21:28:48.962Z,100624.27
2023-03-02T21:31:18.523Z,100625.35
2023-03-02T21:33:47.103Z,100620.98
2023-03-02T21:36:22.149Z,100615.43
2023-03-02T21:38:51.284Z,100612.80
2023-03-02T21:41:19.567Z,100609.94
2023-03-02T21:43:48.722Z,100610.85
2023-03-02T21:46:18.079Z,100613.73
2023-03-02T21:48:47.894Z,100617.69
2023-03-02T21:51:16.586Z,100617.64
2023-03-02T21:53:44.890Z,100618.96
2023-03-02T21:56:16.405Z,100616.73
2023-03-02T21:58:47.430Z,100608.45
2023-03-02T22:01:15.888Z,100609.86
2023-03-02T22:03:45.125Z,100603.45
2023-03-02T22:06:17.495Z,100604.33
2023-03-02T22:08:45.738Z,100605.73
2023-03-02T22:11:16.122Z,100604.55
2023-03-02T22:13:44.666Z,100601.52
2023-03-02T22:16:13.908Z,100600.71
2023-03-02T22:18:42.756Z,100602.73
2023-03-02T22:21:23.282Z,100598.44
2023-03-02T22:24:04.057Z,100595.77
2023-03-02T22:26:35.382Z,100583.20
2023-03-02T22:29:12.910Z,100573.73
2023-03-02T22:31:43.230Z,100565.44
2023-03-02T22:34:30.225Z,100557.77
2023-03-02T22:36:59.533Z,100564.04
2023-03-02T22:39:29.108Z,100570.84
2023-03-02T22:42:02.288Z,100572.28
2023-03-02T22:44:30.599Z,100568.25
2023-03-02T22:46:59.124Z,100564.99
2023-03-02T22:49:27.608Z,100563.70
2023-03-02T22:52:01.657Z,100563.25
2023-03-02T22:54:37.387Z,100566.39
2023-03-02T22:57:24.730Z,100563.91
2023-03-02T22:59:53.196Z,100557.79
2023-03-02T23:02:25.402Z,100560.04
2023-03-02T23:04:53.965Z,100553.83
2023-03-02T23:07:22.423Z,100555.16
2023-03-02T23:09:51.266Z,100554.96
2023-03-02T23:12:23.401Z,100551.41
2023-03-02T23:14:57.997Z,100551.29
2023-03-02T23:17:39.322Z,100549.79
2023-03-02T23:20:10.235Z,100548.33
2023-03-02T23:22:39.595Z,100547.51
2023-03-02T23:25:09.000Z,100549.20
2023-03-02T23:27:38.625Z,100545.73
2023-03-02T23:30:07.000Z,100541.71
2023-03-02T23:32:36.798Z,100546.42
2023-03-02T23:35:05.352Z,100544.36
2023-03-02T23:37:37.918Z,100548.05
2023-03-02T23:40:06.552Z,100548.41
2023-03-02T23:42:34.766Z,100552.52
2023-03-02T23:45:03.118Z,100547.42
2023-03-02T23:47:36.960Z,100547.40
2023-03-02T23:50:06.607Z,100556.00
2023-03-02T23:52:34.969Z,100558.03
2023-03-02T23:55:03.623Z,100550.64
2023-03-02T23:57:32.108Z,100548.04
